Relevés horaires Piotta (Suisse)


Relevés horaires à Piotta - Dimanche 01 Avr. 2007
Heure UTC1 Température [°C] Vent [km/h] Hum. [%] Pres.4 [hPa] Visi. [Km] Nébu. [octa] Préc.5 [mm] Cond.
2m. Res. Ros. Dir.2 Vit. Moy. Raf.3
23:00 4.9 4.9 3.5 SE 3.7 3.7 7.4 91 850(0.6/3h) -- -- -- --
22:00 5.1 5.1 3.4 NNO 0.0 1.9 5.6 89 850(0.9/3h) -- -- -- --
21:00 5.0 5.0 3.6 ESE 1.9 13.0 18.5 91 850(1.3/3h) 15 8/8 -- Légère bruine intermittente
20:00 5.3 5.3 3.3 S 1.9 3.7 5.6 87 850(1.4/3h) -- -- -- --
19:00 5.7 5.7 3.3 NNO 0.0 3.7 7.4 85 850(1.3/3h) -- -- -- --
18:00 6.6 6.6 2.8 SSE 1.9 18.5 25.9 77 850(0.8/3h) 15 8/8 0/0h
Légère bruine intermittente
17:00 7.0 7.0 2.6 ESE 3.7 13.0 18.5 74 850(0.8/3h) -- -- -- --
16:00 7.1 5.7 2.6 E 7.4 16.7 24.1 73 850(0.2/3h) -- -- -- --
15:00 7.0 4.2 2.4 E 14.8 18.5 25.9 72 850(0.3/3h) 10 8/8 -- Légère bruine continue
14:00 7.3 4.6 2.2 E 14.8 18.5 25.9 70 850(0.4/3h) -- -- -- --
13:00 6.2 3 2.3 ENE 16.7 18.5 25.9 76 850(0.6/3h) -- -- -- --
12:00 5.6 2.2 2.7 E 16.7 18.5 25.9 82 850(0.8/3h) -- -- 0/0h
--
11:00 6.5 4.6 3.6 SE 9.3 13.0 18.5 82 850(1.1/3h) -- -- -- --
10:00 4.7 1.7 2.8 E 13.0 13.0 18.5 87 850(1.5/3h) -- -- -- --
09:00 4.1 2.8 2.8 ESE 5.6 9.3 14.8 91 850(1.8/3h) 2 8/8 -- Etat du ciel inchangé
08:00 3.9 2.6 2.9 E 5.6 5.6 11.1 93 850(1.7/3h) -- -- -- --
07:00 3.3 1.9 2.8 E 5.6 -- -- 97 850 -- -- -- --
06:00 3.3 1.3 2.9 ESE 7.4 -- -- 97 850 1 8/8 -- Légère bruine intermittente
05:00 3.4 3.4 3.0 ESE 1.9 1.9 5.6 97 850(0.9/3h) -- -- -- --
04:00 3.4 3.4 2.9 NNO 0.0 1.9 3.7 97 850(0.8/3h) -- -- -- --
03:00 3.5 3.5 2.6 NNO 0.0 9.3 14.8 94 850(0.8/3h) 15 8/8 -- --
02:00 3.8 3.8 2.4 NNO 0.0 9.3 14.8 91 850(1.0/3h) -- -- -- --
01:00 3.9 3.9 2.2 NNO 0.0 9.3 14.8 89 850(1.2/3h) -- -- -- --
00:00 4.4 3.2 2.2 ENE 5.6 20.4 27.8 86 850(1.2/3h) 15 8/8 0.5/6h
--

1 Coordinated Universal Time. Actuellement il est 01:00 locale et 23:00 UTC.

2 Le vent souffle depuis la direction indiquée vers la direction oposée.

3 Les rafales max. sont disponible 40 min après l'heure du relevé.

4 Pour les stations d'altitude (plus de 600m) le géopotentiel du niveau le plus proche de la pression obligatoire est indiqué.

5 Les stations disposant d'un diffuseur peuvent indiquer "trace". Cela signifie que des précipitations ont touchés le sol mais que la quantité est inférieure à 0.1 mm.

Copyright

Les données affichées sur cette page sont la propriété exclusive de Météo Suisse.

Récapitulatif de la journée
Température [°C] Vent [km/h] Ensoleillement4 [h] Precipitations totale5 [mm] Pression [Hpa]
Min1 Max.2 Moy.3 Max. Min Max.
3.3 7.3 11 27.8 0 h 0 min 0 850.0 850.0

1 Température minimale relevée entre 18:00 UTC la veille et 18:00 UTC le jour donné.

2 Température maximale relevée entre 06:00 UTC le jour donné et 06:00 UTC le lendemain.

3 Vent moyen de la journée basé sur les relevés horaires.

4 Ensoleillement en heures relevé entre 06:00 UTC la veille et 06:00 UTC le jour donné.

5 Précipitations totales tombées entre 06:00 UTC la jour donné et 06:00 UTC le lendemain.

Graphiques horaires